createdAt,value
2019-05-21T00:00:12.784Z,95.10
2019-05-21T00:02:41.630Z,95.20
2019-05-21T00:05:11.373Z,95.30
2019-05-21T00:10:09.023Z,95.50
2019-05-21T00:15:06.504Z,95.50
2019-05-21T00:17:35.418Z,95.70
2019-05-21T00:20:07.177Z,95.90
2019-05-21T00:22:36.433Z,95.90
2019-05-21T00:27:34.292Z,95.80
2019-05-21T00:30:39.244Z,95.70
2019-05-21T00:33:44.597Z,95.80
2019-05-21T00:36:49.878Z,95.70
2019-05-21T00:47:06.289Z,95.60
2019-05-21T00:49:35.199Z,95.90
2019-05-21T00:52:08.384Z,96.00
2019-05-21T00:54:34.948Z,96.00
2019-05-21T01:02:00.914Z,96.50
2019-05-21T01:04:29.809Z,96.50
2019-05-21T01:06:58.619Z,96.60
2019-05-21T01:09:27.469Z,96.50
2019-05-21T01:11:56.377Z,96.60
2019-05-21T01:14:25.421Z,96.80
2019-05-21T01:16:54.234Z,96.90
2019-05-21T01:19:23.225Z,96.70
2019-05-21T01:21:52.037Z,96.70
2019-05-21T01:24:20.854Z,96.60
2019-05-21T01:26:49.990Z,96.70
2019-05-21T01:29:18.812Z,96.50
2019-05-21T01:34:16.740Z,96.50
2019-05-21T01:39:14.232Z,96.30
2019-05-21T01:44:11.469Z,96.00
2019-05-21T01:46:40.303Z,96.20
2019-05-21T01:59:03.739Z,96.10
2019-05-21T02:01:32.622Z,96.00
2019-05-21T02:04:01.646Z,96.00
2019-05-21T02:06:30.609Z,96.10
2019-05-21T02:08:59.423Z,96.20
2019-05-21T02:11:28.378Z,95.90
2019-05-21T02:16:26.274Z,96.20
2019-05-21T02:21:23.599Z,96.30
2019-05-21T02:26:20.910Z,96.40
2019-05-21T02:28:49.857Z,96.40
2019-05-21T02:31:19.456Z,96.40
2019-05-21T02:33:48.413Z,96.50
2019-05-21T02:36:17.448Z,96.50
2019-05-21T02:38:46.304Z,96.20
2019-05-21T02:43:43.729Z,96.20
2019-05-21T02:46:12.499Z,96.20
2019-05-21T02:48:41.530Z,96.30
2019-05-21T02:51:10.346Z,96.30
2019-05-21T02:53:39.097Z,96.30
2019-05-21T02:58:36.414Z,96.50
2019-05-21T03:01:22.995Z,95.80
2019-05-21T03:03:51.861Z,96.50
2019-05-21T03:06:20.688Z,96.50
2019-05-21T03:08:49.700Z,96.50
2019-05-21T03:11:18.806Z,96.60
2019-05-21T03:16:16.299Z,96.30
2019-05-21T03:21:13.526Z,96.40
2019-05-21T03:23:42.387Z,96.80
2019-05-21T03:31:27.675Z,96.50
2019-05-21T03:33:56.641Z,96.60
2019-05-21T03:36:33.419Z,96.60
2019-05-21T03:38:56.123Z,96.80
2019-05-21T03:41:25.015Z,97.00
2019-05-21T03:43:54.023Z,97.20
2019-05-21T03:46:22.897Z,97.30
2019-05-21T03:48:51.751Z,97.30
2019-05-21T03:51:20.772Z,97.20
2019-05-21T03:53:49.619Z,97.20
2019-05-21T03:56:37.897Z,97.20
2019-05-21T04:01:35.220Z,97.60
2019-05-21T04:04:04.165Z,97.90
2019-05-21T04:06:50.292Z,96.60
2019-05-21T04:09:05.145Z,98.00
2019-05-21T04:11:53.580Z,97.80
2019-05-21T04:14:33.274Z,97.80
2019-05-21T04:17:06.474Z,97.80
2019-05-21T04:19:42.463Z,98.00
2019-05-21T04:24:41.044Z,98.00
2019-05-21T04:27:10.191Z,98.10
2019-05-21T04:32:07.376Z,98.40
2019-05-21T04:34:36.226Z,98.50
2019-05-21T04:39:35.151Z,98.20
2019-05-21T04:42:04.112Z,97.80
2019-05-21T04:44:34.342Z,98.00
2019-05-21T04:49:32.106Z,98.20
2019-05-21T04:52:03.530Z,97.60
2019-05-21T04:54:32.322Z,97.50
2019-05-21T04:57:04.416Z,97.50
2019-05-21T05:04:52.737Z,97.70
2019-05-21T05:07:28.432Z,97.80
2019-05-21T05:09:52.376Z,98.50
2019-05-21T05:12:22.790Z,98.30
2019-05-21T05:14:53.209Z,98.50
2019-05-21T05:17:23.586Z,98.50
2019-05-21T05:19:52.388Z,98.40
2019-05-21T05:24:50.252Z,98.30
2019-05-21T05:29:48.188Z,98.50
2019-05-21T05:32:16.973Z,99.00
2019-05-21T05:39:43.014Z,98.00
2019-05-21T05:42:11.793Z,97.80
2019-05-21T05:44:41.192Z,97.60
2019-05-21T05:47:10.044Z,97.60
2019-05-21T05:52:17.448Z,97.60
2019-05-21T05:54:46.310Z,96.60
2019-05-21T05:57:15.281Z,97.90
2019-05-21T06:02:12.530Z,97.40
2019-05-21T06:04:41.544Z,97.40
2019-05-21T06:09:38.783Z,97.80
2019-05-21T06:12:07.707Z,97.80
2019-05-21T06:17:04.884Z,97.90
2019-05-21T06:22:03.866Z,98.10
2019-05-21T06:24:32.766Z,98.10
2019-05-21T06:27:01.796Z,97.90
2019-05-21T06:31:59.796Z,98.30
2019-05-21T06:34:29.133Z,98.30
2019-05-21T06:36:57.989Z,97.90
2019-05-21T06:39:26.791Z,98.00
2019-05-21T06:44:24.125Z,98.20
2019-05-21T06:46:52.855Z,98.20
2019-05-21T06:49:21.919Z,98.10
2019-05-21T06:51:50.670Z,98.10
2019-05-21T06:56:47.998Z,98.20
2019-05-21T06:59:16.852Z,98.50
2019-05-21T07:09:12.483Z,97.00
2019-05-21T07:11:41.571Z,96.40
2019-05-21T07:14:10.358Z,96.80
2019-05-21T07:16:39.188Z,96.80
2019-05-21T07:21:36.669Z,96.40
2019-05-21T07:24:07.366Z,96.50
2019-05-21T07:26:35.976Z,96.50
2019-05-21T07:29:04.822Z,96.30
2019-05-21T07:31:33.668Z,96.50
2019-05-21T07:34:02.878Z,96.40
2019-05-21T07:36:33.289Z,96.50
2019-05-21T07:41:33.326Z,96.40
2019-05-21T07:44:02.176Z,96.30
2019-05-21T07:56:25.503Z,97.30
2019-05-21T07:58:54.309Z,97.20
2019-05-21T08:01:24.606Z,96.80
2019-05-21T08:03:53.525Z,96.70
2019-05-21T08:06:22.584Z,96.40
2019-05-21T08:08:51.395Z,96.10
2019-05-21T08:13:48.804Z,96.40
2019-05-21T08:16:17.755Z,96.90
2019-05-21T08:18:46.749Z,97.30
2019-05-21T08:21:15.536Z,97.60
2019-05-21T08:23:44.292Z,97.80
2019-05-21T08:26:13.249Z,97.90
2019-05-21T08:28:42.092Z,97.50
2019-05-21T08:31:10.909Z,97.30
2019-05-21T08:33:39.956Z,97.10
2019-05-21T08:36:08.731Z,96.90
2019-05-21T08:41:06.156Z,96.80
2019-05-21T08:51:03.101Z,95.60
2019-05-21T09:03:27.977Z,96.60
2019-05-21T09:05:58.895Z,95.80
2019-05-21T09:08:27.306Z,95.70
2019-05-21T09:15:52.974Z,97.00
2019-05-21T09:20:50.638Z,96.60
2019-05-21T09:23:19.549Z,97.00
2019-05-21T09:25:49.704Z,96.70
2019-05-21T09:28:18.709Z,96.30
2019-05-21T09:30:48.040Z,95.60
2019-05-21T09:38:13.835Z,95.00
2019-05-21T09:40:42.758Z,96.30
2019-05-21T09:43:11.642Z,96.10
2019-05-21T09:45:40.414Z,97.80
2019-05-21T09:48:09.331Z,97.00
2019-05-21T09:50:38.096Z,96.10
2019-05-21T09:53:06.944Z,96.00
2019-05-21T09:55:35.818Z,96.60
2019-05-21T10:03:15.524Z,92.20
2019-05-21T10:05:44.389Z,91.90
2019-05-21T10:13:10.241Z,90.80
2019-05-21T10:25:33.091Z,90.60
2019-05-21T10:30:32.119Z,91.10
2019-05-21T10:33:01.295Z,90.70
2019-05-21T10:35:30.201Z,90.00
2019-05-21T10:42:56.241Z,87.80
2019-05-21T10:50:26.199Z,84.30
2019-05-21T10:52:55.000Z,84.10
2019-05-21T10:55:24.302Z,83.20
2019-05-21T10:57:53.195Z,82.70
2019-05-21T11:00:23.509Z,81.70
2019-05-21T11:02:57.012Z,80.50
2019-05-21T11:08:23.007Z,81.30
2019-05-21T11:10:34.801Z,81.90
2019-05-21T11:13:05.366Z,81.40
2019-05-21T11:15:34.169Z,82.80
2019-05-21T11:18:11.685Z,82.30
2019-05-21T11:20:33.908Z,81.50
2019-05-21T11:23:02.715Z,79.50
2019-05-21T11:25:33.264Z,80.60
2019-05-21T11:28:06.053Z,80.40
2019-05-21T11:30:34.322Z,81.70
2019-05-21T11:33:04.544Z,82.20
2019-05-21T11:35:36.577Z,80.40
2019-05-21T11:38:05.442Z,80.70
2019-05-21T11:40:55.155Z,77.90
2019-05-21T11:43:26.248Z,77.60
2019-05-21T11:45:55.148Z,77.30
2019-05-21T11:48:24.520Z,78.10
2019-05-21T11:50:53.423Z,75.30
2019-05-21T11:53:22.303Z,76.70
2019-05-21T11:55:51.263Z,76.90
2019-05-21T11:58:20.168Z,78.60
2019-05-21T12:00:49.187Z,80.00
2019-05-21T12:03:18.208Z,79.60
2019-05-21T12:05:47.082Z,79.10
2019-05-21T12:08:15.839Z,80.00
2019-05-21T12:10:45.163Z,81.00
2019-05-21T12:13:14.041Z,81.00
2019-05-21T12:15:42.968Z,80.80
2019-05-21T12:18:11.912Z,80.90
2019-05-21T12:23:09.513Z,83.00
2019-05-21T12:25:38.414Z,83.40
2019-05-21T12:28:10.998Z,81.70
2019-05-21T12:30:37.670Z,82.60
2019-05-21T12:33:06.561Z,82.40
2019-05-21T12:35:35.324Z,83.60
2019-05-21T12:38:04.166Z,85.00
2019-05-21T12:40:32.979Z,85.70
2019-05-21T12:43:03.354Z,84.90
2019-05-21T12:45:35.266Z,86.10
2019-05-21T12:48:04.099Z,86.10
2019-05-21T12:50:32.939Z,86.60
2019-05-21T12:53:02.148Z,84.50
2019-05-21T12:57:59.516Z,83.90
2019-05-21T13:00:32.731Z,86.30
2019-05-21T13:03:01.568Z,86.10
2019-05-21T13:05:30.610Z,86.00
2019-05-21T13:07:59.700Z,85.20
2019-05-21T13:10:28.847Z,85.30
2019-05-21T13:15:28.354Z,85.30
2019-05-21T13:17:56.935Z,84.80
2019-05-21T13:20:26.154Z,84.50
2019-05-21T13:22:55.099Z,85.20
2019-05-21T13:25:23.944Z,82.80
2019-05-21T13:30:22.123Z,84.90
2019-05-21T13:32:50.863Z,84.60
2019-05-21T13:40:17.178Z,87.40
2019-05-21T13:42:45.920Z,90.00
2019-05-21T13:45:15.081Z,89.40
2019-05-21T13:52:40.882Z,89.10
2019-05-21T13:55:09.789Z,90.10
2019-05-21T13:57:38.599Z,88.80
2019-05-21T14:00:11.365Z,88.10
2019-05-21T14:05:09.345Z,91.50
2019-05-21T14:07:38.307Z,91.00
2019-05-21T14:10:15.064Z,90.30
2019-05-21T14:12:38.350Z,89.90
2019-05-21T14:15:08.260Z,88.70
2019-05-21T14:22:36.517Z,84.50
2019-05-21T14:25:09.031Z,81.60
2019-05-21T14:30:09.154Z,77.80
2019-05-21T14:32:38.179Z,79.00
2019-05-21T14:35:07.886Z,80.70
2019-05-21T14:40:09.775Z,81.40
2019-05-21T14:45:08.171Z,83.00
2019-05-21T14:47:37.140Z,80.50
2019-05-21T14:50:07.960Z,82.40
2019-05-21T14:52:36.955Z,79.80
2019-05-21T14:55:09.380Z,81.40
2019-05-21T15:05:08.384Z,76.60
2019-05-21T15:07:36.915Z,77.20
2019-05-21T15:10:06.595Z,79.10
2019-05-21T15:12:35.423Z,79.10
2019-05-21T15:15:05.836Z,78.50
2019-05-21T15:17:35.390Z,76.20
2019-05-21T15:20:16.027Z,73.60
2019-05-21T15:22:44.993Z,75.20
2019-05-21T15:25:13.876Z,76.40
2019-05-21T15:27:42.819Z,77.20
2019-05-21T15:30:12.317Z,76.80
2019-05-21T15:35:09.931Z,73.30
2019-05-21T15:37:45.033Z,72.50
2019-05-21T15:40:12.920Z,73.10
2019-05-21T15:45:11.474Z,73.70
2019-05-21T15:50:11.379Z,72.50
2019-05-21T15:55:08.884Z,71.60
2019-05-21T16:02:35.861Z,72.20
2019-05-21T16:10:03.506Z,72.10
2019-05-21T16:12:33.775Z,73.20
2019-05-21T16:15:04.691Z,73.50
2019-05-21T16:20:04.852Z,70.30
2019-05-21T16:22:33.792Z,72.60
2019-05-21T16:25:04.193Z,71.90
2019-05-21T16:27:33.064Z,73.60
2019-05-21T16:32:30.671Z,73.50
2019-05-21T16:37:28.497Z,71.30
2019-05-21T16:42:25.959Z,69.80
2019-05-21T16:44:54.782Z,69.70
2019-05-21T16:47:23.570Z,69.80
2019-05-21T16:52:21.400Z,69.60
2019-05-21T16:54:50.185Z,70.30
2019-05-21T16:57:19.340Z,70.50
2019-05-21T17:02:16.690Z,70.10
2019-05-21T17:04:45.724Z,69.80
2019-05-21T17:07:14.598Z,69.60
2019-05-21T17:09:43.367Z,70.00
2019-05-21T17:14:43.904Z,71.40
2019-05-21T17:17:12.730Z,71.80
2019-05-21T17:19:41.625Z,69.80
2019-05-21T17:22:10.447Z,72.20
2019-05-21T17:24:39.289Z,72.60
2019-05-21T17:29:36.596Z,72.20
2019-05-21T17:32:06.631Z,72.80
2019-05-21T17:39:32.671Z,72.80
2019-05-21T17:42:14.714Z,73.70
2019-05-21T17:47:02.212Z,73.20
2019-05-21T17:54:29.012Z,73.80
2019-05-21T17:56:59.588Z,74.80
2019-05-21T18:02:01.682Z,74.40
2019-05-21T18:04:31.319Z,74.60
2019-05-21T18:07:01.672Z,75.00
2019-05-21T18:11:59.748Z,74.60
2019-05-21T18:16:59.422Z,74.70
2019-05-21T18:21:58.739Z,74.90
2019-05-21T18:24:27.978Z,75.00
2019-05-21T18:26:56.893Z,74.70
2019-05-21T18:29:25.897Z,75.30
2019-05-21T18:31:54.807Z,75.30
2019-05-21T18:34:23.715Z,75.50
2019-05-21T18:36:52.592Z,76.70
2019-05-21T18:39:21.997Z,76.70
2019-05-21T18:44:26.492Z,76.20
2019-05-21T18:46:55.474Z,77.40
2019-05-21T18:49:27.432Z,75.70
2019-05-21T18:54:23.409Z,76.50
2019-05-21T18:56:52.423Z,76.10
2019-05-21T18:59:21.561Z,76.40
2019-05-21T19:04:18.635Z,76.40
2019-05-21T19:06:47.605Z,77.20
2019-05-21T19:09:16.407Z,77.20
2019-05-21T19:11:45.494Z,78.50
2019-05-21T19:14:14.294Z,78.10
2019-05-21T19:16:43.267Z,77.40
2019-05-21T19:19:12.084Z,78.30
2019-05-21T19:21:42.436Z,77.90
2019-05-21T19:24:11.231Z,78.50
2019-05-21T19:29:08.833Z,78.70
2019-05-21T19:31:37.675Z,80.50
2019-05-21T19:36:35.141Z,79.90
2019-05-21T19:41:33.610Z,78.60
2019-05-21T19:44:02.608Z,79.30
2019-05-21T19:49:02.346Z,80.60
2019-05-21T19:53:59.347Z,81.20
2019-05-21T19:56:29.492Z,81.50
2019-05-21T19:58:58.402Z,81.60
2019-05-21T20:01:27.913Z,81.90
2019-05-21T20:03:57.413Z,82.40
2019-05-21T20:06:27.085Z,82.80
2019-05-21T20:08:57.097Z,83.30
2019-05-21T20:11:25.926Z,83.60
2019-05-21T20:13:54.862Z,83.30
2019-05-21T20:16:25.029Z,83.50
2019-05-21T20:18:54.086Z,83.80
2019-05-21T20:23:52.375Z,84.30
2019-05-21T20:26:23.370Z,84.90
2019-05-21T20:28:52.221Z,85.10
2019-05-21T20:31:23.196Z,85.30
2019-05-21T20:33:53.007Z,85.40
2019-05-21T20:36:22.158Z,85.60
2019-05-21T20:38:51.888Z,85.50
2019-05-21T20:41:21.726Z,85.70
2019-05-21T20:43:58.561Z,85.80
2019-05-21T20:46:21.938Z,86.00
2019-05-21T20:51:19.415Z,86.80
2019-05-21T20:53:48.446Z,86.80
2019-05-21T20:56:18.515Z,86.90
2019-05-21T20:58:47.251Z,87.50
2019-05-21T21:01:16.182Z,88.00
2019-05-21T21:06:14.595Z,89.10
2019-05-21T21:08:44.347Z,88.80
2019-05-21T21:11:14.107Z,88.50
2019-05-21T21:13:43.120Z,88.00
2019-05-21T21:16:12.330Z,87.50
2019-05-21T21:18:41.462Z,87.70
2019-05-21T21:21:10.423Z,88.00
2019-05-21T21:23:40.733Z,88.20
2019-05-21T21:26:09.643Z,88.70
2019-05-21T21:28:38.408Z,89.20
2019-05-21T21:31:08.201Z,89.70
2019-05-21T21:33:37.216Z,89.90
2019-05-21T21:36:06.622Z,89.80
2019-05-21T21:41:07.199Z,89.40
2019-05-21T21:43:36.561Z,89.50
2019-05-21T21:46:05.946Z,90.10
2019-05-21T21:48:35.063Z,89.10
2019-05-21T21:53:33.594Z,90.00
2019-05-21T21:56:02.820Z,90.00
2019-05-21T22:01:16.972Z,90.00
2019-05-21T22:06:17.284Z,90.10
2019-05-21T22:08:46.942Z,90.40
2019-05-21T22:11:16.100Z,91.10
2019-05-21T22:13:45.619Z,90.90
2019-05-21T22:16:14.662Z,91.10
2019-05-21T22:18:43.614Z,91.20
2019-05-21T22:21:12.560Z,91.30
2019-05-21T22:23:41.647Z,92.70
2019-05-21T22:26:10.418Z,90.90
2019-05-21T22:31:08.199Z,90.80
2019-05-21T22:33:37.029Z,90.80
2019-05-21T22:36:05.943Z,90.70
2019-05-21T22:38:34.900Z,90.60
2019-05-21T22:41:03.769Z,90.70
2019-05-21T22:43:32.874Z,90.80
2019-05-21T22:46:02.076Z,90.80
2019-05-21T22:48:31.603Z,90.90
2019-05-21T22:51:00.458Z,90.90
2019-05-21T22:53:29.913Z,90.90
2019-05-21T22:55:58.685Z,90.80
2019-05-21T22:58:27.857Z,90.90
2019-05-21T23:03:28.187Z,90.90
2019-05-21T23:05:57.143Z,91.00
2019-05-21T23:08:26.798Z,91.10
2019-05-21T23:10:55.641Z,91.30
2019-05-21T23:13:24.396Z,91.60
2019-05-21T23:18:22.663Z,91.50
2019-05-21T23:20:53.079Z,92.00
2019-05-21T23:23:24.448Z,91.40
2019-05-21T23:25:54.146Z,91.30
2019-05-21T23:28:23.610Z,91.20
2019-05-21T23:30:52.729Z,91.20
2019-05-21T23:33:21.544Z,91.10
2019-05-21T23:38:20.142Z,91.10
2019-05-21T23:43:19.304Z,91.20
2019-05-21T23:45:48.559Z,91.20
2019-05-21T23:48:18.707Z,91.30
2019-05-21T23:50:47.909Z,91.20
2019-05-21T23:53:17.017Z,91.10
2019-05-21T23:55:46.387Z,91.40
2019-05-21T23:58:15.463Z,91.30
